createdAt,value
2023-05-19T00:02:26.304Z,8.81
2023-05-19T00:04:53.444Z,8.83
2023-05-19T00:07:26.764Z,8.81
2023-05-19T00:09:53.826Z,8.68
2023-05-19T00:12:20.834Z,8.58
2023-05-19T00:14:50.810Z,8.56
2023-05-19T00:17:17.714Z,8.55
2023-05-19T00:19:45.345Z,8.41
2023-05-19T00:22:12.221Z,8.37
2023-05-19T00:24:38.948Z,8.39
2023-05-19T00:27:05.939Z,8.29
2023-05-19T00:29:32.778Z,8.28
2023-05-19T00:31:59.606Z,8.12
2023-05-19T00:34:26.394Z,8.15
2023-05-19T00:36:53.363Z,8.04
2023-05-19T00:39:20.078Z,7.99
2023-05-19T00:41:46.804Z,8.14
2023-05-19T00:44:13.629Z,7.99
2023-05-19T00:46:41.660Z,7.99
2023-05-19T00:49:08.569Z,7.84
2023-05-19T00:51:36.167Z,7.77
2023-05-19T00:54:03.616Z,7.82
2023-05-19T00:56:31.420Z,7.73
2023-05-19T00:59:01.005Z,7.79
2023-05-19T01:01:28.114Z,7.83
2023-05-19T01:03:59.308Z,7.90
2023-05-19T01:06:28.048Z,7.78
2023-05-19T01:08:54.799Z,7.74
2023-05-19T01:11:21.832Z,7.79
2023-05-19T01:13:49.020Z,7.78
2023-05-19T01:16:26.750Z,7.65
2023-05-19T01:19:04.898Z,7.69
2023-05-19T01:22:02.535Z,7.68
2023-05-19T01:24:45.361Z,7.52
2023-05-19T01:27:35.101Z,7.56
2023-05-19T01:30:31.047Z,7.47
2023-05-19T01:33:01.643Z,7.58
2023-05-19T01:35:29.460Z,7.54
2023-05-19T01:38:00.095Z,7.71
2023-05-19T01:40:28.283Z,7.58
2023-05-19T01:42:58.024Z,7.57
2023-05-19T01:45:27.959Z,7.33
2023-05-19T01:47:58.273Z,7.35
2023-05-19T01:50:25.588Z,7.48
2023-05-19T01:52:52.701Z,7.43
2023-05-19T01:55:21.383Z,7.44
2023-05-19T01:58:14.255Z,7.37
2023-05-19T02:01:01.332Z,7.23
2023-05-19T02:03:50.255Z,7.23
2023-05-19T02:06:54.067Z,7.18
2023-05-19T02:09:30.666Z,7.13
2023-05-19T02:12:19.425Z,7.14
2023-05-19T02:14:50.916Z,7.10
2023-05-19T02:17:20.484Z,7.01
2023-05-19T02:19:47.402Z,7.01
2023-05-19T02:22:15.102Z,6.95
2023-05-19T02:24:41.838Z,6.90
2023-05-19T02:27:08.577Z,6.87
2023-05-19T02:29:35.350Z,6.89
2023-05-19T02:32:02.424Z,6.82
2023-05-19T02:34:29.330Z,6.80
2023-05-19T02:36:56.786Z,6.80
2023-05-19T02:39:23.503Z,6.92
2023-05-19T02:41:50.473Z,6.80
2023-05-19T02:44:17.261Z,6.83
2023-05-19T02:46:44.175Z,6.69
2023-05-19T02:49:11.591Z,6.68
2023-05-19T02:51:39.245Z,6.72
2023-05-19T02:54:06.294Z,6.63
2023-05-19T02:56:33.047Z,6.58
2023-05-19T02:58:59.803Z,6.64
2023-05-19T03:01:26.577Z,6.67
2023-05-19T03:03:53.501Z,6.70
2023-05-19T03:06:20.311Z,6.69
2023-05-19T03:08:47.067Z,6.66
2023-05-19T03:11:13.807Z,6.64
2023-05-19T03:13:40.518Z,6.63
2023-05-19T03:16:08.498Z,6.52
2023-05-19T03:18:35.543Z,6.44
2023-05-19T03:21:02.390Z,6.38
2023-05-19T03:23:29.075Z,6.42
2023-05-19T03:25:56.467Z,6.40
2023-05-19T03:28:23.669Z,6.51
2023-05-19T03:30:51.042Z,6.42
2023-05-19T03:33:21.360Z,6.49
2023-05-19T03:35:48.556Z,6.37
2023-05-19T03:38:16.280Z,6.32
2023-05-19T03:40:50.730Z,6.40
2023-05-19T03:43:18.031Z,6.38
2023-05-19T03:45:49.775Z,6.29
2023-05-19T03:48:35.075Z,6.27
2023-05-19T03:51:20.293Z,6.24
2023-05-19T03:53:49.567Z,6.24
2023-05-19T03:56:18.265Z,6.24
2023-05-19T03:58:47.128Z,6.13
2023-05-19T04:01:14.936Z,6.18
2023-05-19T04:03:41.965Z,6.20
2023-05-19T04:06:09.061Z,6.22
2023-05-19T04:08:35.912Z,6.20
2023-05-19T04:11:02.744Z,6.26
2023-05-19T04:13:33.060Z,6.24
2023-05-19T04:16:00.160Z,6.28
2023-05-19T04:18:28.950Z,6.37
2023-05-19T04:20:56.001Z,6.35
2023-05-19T04:23:22.791Z,6.52
2023-05-19T04:25:49.980Z,6.56
2023-05-19T04:28:16.760Z,6.54
2023-05-19T04:30:46.769Z,6.67
2023-05-19T04:33:13.976Z,6.77
2023-05-19T04:35:44.024Z,6.58
2023-05-19T04:38:12.362Z,6.89
2023-05-19T04:40:40.716Z,6.83
2023-05-19T04:43:09.656Z,6.96
2023-05-19T04:45:37.847Z,6.90
2023-05-19T04:48:05.714Z,7.16
2023-05-19T04:50:33.069Z,7.25
2023-05-19T04:53:00.660Z,7.36
2023-05-19T04:55:27.904Z,7.21
2023-05-19T04:57:54.756Z,7.29
2023-05-19T05:00:22.422Z,7.42
2023-05-19T05:02:57.828Z,7.40
2023-05-19T05:05:26.734Z,7.50
2023-05-19T05:07:54.301Z,7.50
2023-05-19T05:10:23.839Z,7.64
2023-05-19T05:12:51.002Z,7.68
2023-05-19T05:15:18.496Z,7.76
2023-05-19T05:17:48.679Z,7.87
2023-05-19T05:20:16.763Z,7.98
2023-05-19T05:22:44.077Z,8.15
2023-05-19T05:25:12.723Z,8.23
2023-05-19T05:27:39.667Z,8.36
2023-05-19T05:30:08.849Z,8.59
2023-05-19T05:32:36.458Z,8.73
2023-05-19T05:35:08.618Z,8.83
2023-05-19T05:37:35.523Z,9.01
2023-05-19T05:40:02.440Z,9.20
2023-05-19T05:42:31.038Z,9.28
2023-05-19T05:44:57.793Z,9.41
2023-05-19T05:47:28.802Z,9.40
2023-05-19T05:49:56.059Z,9.62
2023-05-19T05:52:29.410Z,9.70
2023-05-19T05:54:57.195Z,9.93
2023-05-19T05:57:24.241Z,10.10
2023-05-19T05:59:51.063Z,10.28
2023-05-19T06:02:18.295Z,10.45
2023-05-19T06:04:45.265Z,10.54
2023-05-19T06:07:12.383Z,10.67
2023-05-19T06:09:39.522Z,10.71
2023-05-19T06:12:07.987Z,10.86
2023-05-19T06:14:40.117Z,10.97
2023-05-19T06:17:25.231Z,11.17
2023-05-19T06:19:53.073Z,11.46
2023-05-19T06:22:19.838Z,11.70
2023-05-19T06:24:46.666Z,11.75
2023-05-19T06:27:13.919Z,11.90
2023-05-19T06:29:40.754Z,11.94
2023-05-19T06:32:08.921Z,12.58
2023-05-19T06:34:35.845Z,12.28
2023-05-19T06:37:02.703Z,12.35
2023-05-19T06:39:30.803Z,12.51
2023-05-19T06:41:57.563Z,13.07
2023-05-19T06:44:44.326Z,13.39
2023-05-19T06:47:12.153Z,13.60
2023-05-19T06:49:39.100Z,13.58
2023-05-19T06:52:06.490Z,13.61
2023-05-19T06:54:33.275Z,14.08
2023-05-19T06:57:00.229Z,14.86
2023-05-19T06:59:27.188Z,14.64
2023-05-19T07:01:54.147Z,14.20
2023-05-19T07:04:21.176Z,14.27
2023-05-19T07:06:48.053Z,15.26
2023-05-19T07:09:14.905Z,14.93
2023-05-19T07:11:42.343Z,15.19
2023-05-19T07:14:10.614Z,14.92
2023-05-19T07:16:37.448Z,14.85
2023-05-19T07:19:05.537Z,15.02
2023-05-19T07:21:33.440Z,15.85
2023-05-19T07:24:00.185Z,15.48
2023-05-19T07:26:28.991Z,15.30
2023-05-19T07:28:55.855Z,15.68
2023-05-19T07:31:22.747Z,16.64
2023-05-19T07:33:49.795Z,16.22
2023-05-19T07:36:17.201Z,16.03
2023-05-19T07:38:44.422Z,17.78
2023-05-19T07:41:11.142Z,17.64
2023-05-19T07:43:37.908Z,17.19
2023-05-19T07:46:06.186Z,16.72
2023-05-19T07:48:33.018Z,16.49
2023-05-19T07:50:59.851Z,16.62
2023-05-19T07:53:26.925Z,17.51
2023-05-19T07:55:53.933Z,16.50
2023-05-19T07:58:21.219Z,18.27
2023-05-19T08:00:47.958Z,17.13
2023-05-19T08:03:17.934Z,17.21
2023-05-19T08:05:45.844Z,16.64
2023-05-19T08:08:12.949Z,17.11
2023-05-19T08:10:39.834Z,16.83
2023-05-19T08:13:06.649Z,16.42
2023-05-19T08:15:36.222Z,16.79
2023-05-19T08:18:03.688Z,17.33
2023-05-19T08:20:30.839Z,18.02
2023-05-19T08:22:57.723Z,19.28
2023-05-19T08:25:24.576Z,17.74
2023-05-19T08:27:51.519Z,18.46
2023-05-19T08:30:18.472Z,17.65
2023-05-19T08:32:45.391Z,17.12
2023-05-19T08:35:12.215Z,17.61
2023-05-19T08:37:39.030Z,17.60
2023-05-19T08:40:06.552Z,17.46
2023-05-19T08:42:34.152Z,18.56
2023-05-19T08:45:02.334Z,19.84
2023-05-19T08:47:29.744Z,19.27
2023-05-19T08:50:03.684Z,19.92
2023-05-19T08:52:33.446Z,20.44
2023-05-19T08:55:13.280Z,20.46
2023-05-19T08:57:40.910Z,18.63
2023-05-19T09:00:14.298Z,20.62
2023-05-19T09:02:50.562Z,19.60
2023-05-19T09:05:28.389Z,21.16
2023-05-19T09:07:55.569Z,20.67
2023-05-19T09:10:22.776Z,20.23
2023-05-19T09:12:49.984Z,20.19
2023-05-19T09:15:19.227Z,19.91
2023-05-19T09:17:48.240Z,20.41
2023-05-19T09:20:17.673Z,19.92
2023-05-19T09:22:47.406Z,19.66
2023-05-19T09:25:24.080Z,19.49
2023-05-19T09:27:51.196Z,19.70
2023-05-19T09:30:18.423Z,20.72
2023-05-19T09:32:47.026Z,19.28
2023-05-19T09:35:14.156Z,19.04
2023-05-19T09:37:41.707Z,19.48
2023-05-19T09:40:11.235Z,20.74
2023-05-19T09:42:40.044Z,19.64
2023-05-19T09:45:08.233Z,19.18
2023-05-19T09:47:37.049Z,19.77
2023-05-19T09:50:12.133Z,19.93
2023-05-19T09:52:39.730Z,20.39
2023-05-19T09:55:10.064Z,20.80
2023-05-19T09:57:38.050Z,20.96
2023-05-19T10:00:15.176Z,22.24
2023-05-19T10:02:44.205Z,20.49
2023-05-19T10:05:20.476Z,22.02
2023-05-19T10:07:51.642Z,21.92
2023-05-19T10:10:22.308Z,23.30
2023-05-19T10:12:49.859Z,21.27
2023-05-19T10:15:22.081Z,22.90
2023-05-19T10:17:50.334Z,20.98
2023-05-19T10:20:17.952Z,20.64
2023-05-19T10:22:46.541Z,22.87
2023-05-19T10:25:18.755Z,22.51
2023-05-19T10:27:56.614Z,20.68
2023-05-19T10:30:29.974Z,21.02
2023-05-19T10:32:57.656Z,20.91
2023-05-19T10:35:33.999Z,20.63
2023-05-19T10:38:13.150Z,20.60
2023-05-19T10:41:04.670Z,21.76
2023-05-19T10:43:44.500Z,21.06
2023-05-19T10:46:12.326Z,22.48
2023-05-19T10:48:44.949Z,22.77
2023-05-19T10:51:12.445Z,22.48
2023-05-19T10:53:46.450Z,22.72
2023-05-19T10:56:34.903Z,22.74
2023-05-19T10:59:03.388Z,23.69
2023-05-19T11:01:35.355Z,22.40
2023-05-19T11:04:07.024Z,22.70
2023-05-19T11:06:36.533Z,22.09
2023-05-19T11:09:12.816Z,22.47
2023-05-19T11:11:53.388Z,21.02
2023-05-19T11:14:27.293Z,20.45
2023-05-19T11:16:57.015Z,20.88
2023-05-19T11:19:37.107Z,21.79
2023-05-19T11:22:13.487Z,23.22
2023-05-19T11:24:50.726Z,21.80
2023-05-19T11:27:33.445Z,22.79
2023-05-19T11:30:02.591Z,21.57
2023-05-19T11:32:31.685Z,22.19
2023-05-19T11:34:58.534Z,23.05
2023-05-19T11:37:25.648Z,22.36
2023-05-19T11:39:53.177Z,21.62
2023-05-19T11:42:20.193Z,21.64
2023-05-19T11:44:47.169Z,23.37
2023-05-19T11:47:17.491Z,23.22
2023-05-19T11:49:55.283Z,21.47
2023-05-19T11:52:23.344Z,22.49
2023-05-19T11:54:50.814Z,24.11
2023-05-19T11:57:17.674Z,23.75
2023-05-19T11:59:45.899Z,22.74
2023-05-19T12:02:25.367Z,22.65
2023-05-19T12:04:53.244Z,23.42
2023-05-19T12:07:23.545Z,24.14
2023-05-19T12:09:52.004Z,24.19
2023-05-19T12:12:23.223Z,23.20
2023-05-19T12:14:53.536Z,23.76
2023-05-19T12:17:21.315Z,22.42
2023-05-19T12:19:49.118Z,23.06
2023-05-19T12:22:17.090Z,22.28
2023-05-19T12:24:45.113Z,23.98
2023-05-19T12:27:17.967Z,22.56
2023-05-19T12:29:50.397Z,22.20
2023-05-19T12:32:17.183Z,23.05
2023-05-19T12:34:44.141Z,21.67
2023-05-19T12:37:11.533Z,22.61
2023-05-19T12:39:42.240Z,21.89
2023-05-19T12:42:10.506Z,22.13
2023-05-19T12:44:49.003Z,22.69
2023-05-19T12:47:16.855Z,22.61
2023-05-19T12:50:06.636Z,21.49
2023-05-19T12:52:35.765Z,21.96
2023-05-19T12:57:38.309Z,23.20
2023-05-19T13:00:28.678Z,23.37
2023-05-19T13:02:57.239Z,22.92
2023-05-19T13:05:24.929Z,23.35
2023-05-19T13:07:55.770Z,23.07
2023-05-19T13:10:23.284Z,23.34
2023-05-19T13:12:50.138Z,21.91
2023-05-19T13:15:17.009Z,22.19
2023-05-19T13:17:46.599Z,21.94
2023-05-19T13:20:13.808Z,22.87
2023-05-19T13:22:40.986Z,22.87
2023-05-19T13:25:08.385Z,22.13
2023-05-19T13:27:35.571Z,21.57
2023-05-19T13:30:02.756Z,21.33
2023-05-19T13:32:29.663Z,21.56
2023-05-19T13:34:57.039Z,22.23
2023-05-19T13:37:23.827Z,23.30
2023-05-19T13:39:50.708Z,23.16
2023-05-19T13:42:17.850Z,23.23
2023-05-19T13:44:47.774Z,22.08
2023-05-19T13:47:14.664Z,21.34
2023-05-19T13:49:42.051Z,20.91
2023-05-19T13:52:09.188Z,22.06
2023-05-19T13:54:36.147Z,22.32
2023-05-19T13:57:02.919Z,22.32
2023-05-19T13:59:29.988Z,21.99
2023-05-19T14:01:56.834Z,21.93
2023-05-19T14:04:26.411Z,21.87
2023-05-19T14:06:53.162Z,22.22
2023-05-19T14:09:20.382Z,20.62
2023-05-19T14:11:48.140Z,20.62
2023-05-19T14:14:14.870Z,20.52
2023-05-19T14:16:41.960Z,20.31
2023-05-19T14:19:08.992Z,20.46
2023-05-19T14:21:36.997Z,20.50
2023-05-19T14:24:04.040Z,20.25
2023-05-19T14:26:31.135Z,20.82
2023-05-19T14:28:58.182Z,20.38
2023-05-19T14:31:25.051Z,20.59
2023-05-19T14:33:52.655Z,19.97
2023-05-19T14:36:19.524Z,20.10
2023-05-19T14:38:46.312Z,20.31
2023-05-19T14:41:13.252Z,20.69
2023-05-19T14:43:42.329Z,20.97
2023-05-19T14:46:09.247Z,20.23
2023-05-19T14:48:36.000Z,20.38
2023-05-19T14:51:02.847Z,19.55
2023-05-19T14:53:29.752Z,19.66
2023-05-19T14:55:56.445Z,19.89
2023-05-19T14:58:28.823Z,19.97
2023-05-19T15:00:58.179Z,20.20
2023-05-19T15:03:25.099Z,19.64
2023-05-19T15:05:52.015Z,20.05
2023-05-19T15:08:18.820Z,20.39
2023-05-19T15:10:49.420Z,20.90
2023-05-19T15:13:17.258Z,20.87
2023-05-19T15:15:44.327Z,19.52
2023-05-19T15:18:11.657Z,20.09
2023-05-19T15:20:38.447Z,19.51
2023-05-19T15:23:05.202Z,19.75
2023-05-19T15:25:32.032Z,19.28
2023-05-19T15:27:58.739Z,18.77
2023-05-19T15:30:25.580Z,19.06
2023-05-19T15:32:52.324Z,19.05
2023-05-19T15:35:19.084Z,19.11
2023-05-19T15:37:46.000Z,19.60
2023-05-19T15:40:13.037Z,20.34
2023-05-19T15:42:39.827Z,19.30
2023-05-19T15:45:08.285Z,19.04
2023-05-19T15:47:35.200Z,19.09
2023-05-19T15:50:02.131Z,19.68
2023-05-19T15:52:29.383Z,20.07
2023-05-19T15:54:59.231Z,20.27
2023-05-19T15:57:26.100Z,19.51
2023-05-19T15:59:52.800Z,19.14
2023-05-19T16:02:19.707Z,18.76
2023-05-19T16:04:46.507Z,18.50
2023-05-19T16:07:23.941Z,18.33
2023-05-19T16:09:50.678Z,18.59
2023-05-19T16:12:17.374Z,18.36
2023-05-19T16:14:44.122Z,18.70
2023-05-19T16:17:11.956Z,18.99
2023-05-19T16:19:38.794Z,19.24
2023-05-19T16:22:05.789Z,19.65
2023-05-19T16:24:32.614Z,19.30
2023-05-19T16:26:59.402Z,19.09
2023-05-19T16:29:26.129Z,19.22
2023-05-19T16:31:52.933Z,18.75
2023-05-19T16:34:19.712Z,18.65
2023-05-19T16:36:46.417Z,18.53
2023-05-19T16:39:13.547Z,18.21
2023-05-19T16:41:40.349Z,18.23
2023-05-19T16:44:07.119Z,18.12
2023-05-19T16:46:34.351Z,18.01
2023-05-19T16:49:01.188Z,18.23
2023-05-19T16:51:27.919Z,18.49
2023-05-19T16:53:54.774Z,18.32
2023-05-19T16:56:22.171Z,18.29
2023-05-19T16:58:49.575Z,18.19
2023-05-19T17:01:17.556Z,18.01
2023-05-19T17:03:44.357Z,17.79
2023-05-19T17:06:11.083Z,17.64
2023-05-19T17:08:37.934Z,17.54
2023-05-19T17:11:06.530Z,17.47
2023-05-19T17:13:41.693Z,17.51
2023-05-19T17:16:09.133Z,17.57
2023-05-19T17:18:35.981Z,17.58
2023-05-19T17:21:05.044Z,17.60
2023-05-19T17:23:32.521Z,17.72
2023-05-19T17:25:59.359Z,17.72
2023-05-19T17:28:26.259Z,17.68
2023-05-19T17:30:53.193Z,17.50
2023-05-19T17:33:20.054Z,17.53
2023-05-19T17:35:46.899Z,17.41
2023-05-19T17:38:13.688Z,17.34
2023-05-19T17:40:42.075Z,17.17
2023-05-19T17:43:09.221Z,17.06
2023-05-19T17:45:36.140Z,17.01
2023-05-19T17:48:03.046Z,16.88
2023-05-19T17:50:29.826Z,16.88
2023-05-19T17:52:56.837Z,16.77
2023-05-19T17:55:28.191Z,16.71
2023-05-19T17:57:55.246Z,16.72
2023-05-19T18:00:22.669Z,16.63
2023-05-19T18:02:49.794Z,16.66
2023-05-19T18:05:17.268Z,16.63
2023-05-19T18:07:44.395Z,16.69
2023-05-19T18:10:11.991Z,16.61
2023-05-19T18:12:38.874Z,16.58
2023-05-19T18:15:06.232Z,16.58
2023-05-19T18:17:33.097Z,16.49
2023-05-19T18:19:59.793Z,16.44
2023-05-19T18:22:26.642Z,16.42
2023-05-19T18:24:53.492Z,16.36
2023-05-19T18:27:20.403Z,16.46
2023-05-19T18:29:48.555Z,16.35
2023-05-19T18:32:17.059Z,16.29
2023-05-19T18:34:44.102Z,16.33
2023-05-19T18:37:11.069Z,16.24
2023-05-19T18:39:37.841Z,16.16
2023-05-19T18:42:04.858Z,16.06
2023-05-19T18:44:34.027Z,16.02
2023-05-19T18:47:01.300Z,15.92
2023-05-19T18:49:28.114Z,15.92
2023-05-19T18:51:54.822Z,15.74
2023-05-19T18:54:22.031Z,15.88
2023-05-19T18:56:48.878Z,15.85
2023-05-19T18:59:15.650Z,15.65
2023-05-19T19:01:43.004Z,15.72
2023-05-19T19:04:10.030Z,15.67
2023-05-19T19:06:36.802Z,15.45
2023-05-19T19:09:03.758Z,15.34
2023-05-19T19:11:30.548Z,15.22
2023-05-19T19:13:57.225Z,15.13
2023-05-19T19:16:24.094Z,15.27
2023-05-19T19:18:51.077Z,15.18
2023-05-19T19:21:20.049Z,15.11
2023-05-19T19:23:46.965Z,15.05
2023-05-19T19:26:13.682Z,14.84
2023-05-19T19:28:40.634Z,14.88
2023-05-19T19:31:07.497Z,14.70
2023-05-19T19:33:34.433Z,14.64
2023-05-19T19:36:01.532Z,14.54
2023-05-19T19:38:28.439Z,14.42
2023-05-19T19:40:55.199Z,14.27
2023-05-19T19:43:21.919Z,14.20
2023-05-19T19:45:48.866Z,14.25
2023-05-19T19:48:15.627Z,14.27
2023-05-19T19:50:42.389Z,14.12
2023-05-19T19:53:09.207Z,14.03
2023-05-19T19:55:36.126Z,14.07
2023-05-19T19:58:02.999Z,14.14
2023-05-19T20:00:29.870Z,14.02
2023-05-19T20:03:05.225Z,13.96
2023-05-19T20:05:32.821Z,14.00
2023-05-19T20:07:59.756Z,13.82
2023-05-19T20:10:26.503Z,13.74
2023-05-19T20:12:53.410Z,13.68
2023-05-19T20:15:20.350Z,13.60
2023-05-19T20:17:47.066Z,13.55
2023-05-19T20:20:14.219Z,13.54
2023-05-19T20:22:41.000Z,13.45
2023-05-19T20:25:08.149Z,13.41
2023-05-19T20:27:34.972Z,13.43
2023-05-19T20:30:01.722Z,13.30
2023-05-19T20:32:28.496Z,13.25
2023-05-19T20:34:55.359Z,13.13
2023-05-19T20:37:22.577Z,13.12
2023-05-19T20:39:49.410Z,13.08
2023-05-19T20:42:16.217Z,13.00
2023-05-19T20:44:43.069Z,12.92
2023-05-19T20:47:10.745Z,12.71
2023-05-19T20:49:37.478Z,12.77
2023-05-19T20:52:04.464Z,12.79
2023-05-19T20:54:31.293Z,12.80
2023-05-19T20:56:57.975Z,12.71
2023-05-19T20:59:24.785Z,12.68
2023-05-19T21:01:51.543Z,12.71
2023-05-19T21:04:18.320Z,12.71
2023-05-19T21:06:45.209Z,12.63
2023-05-19T21:09:12.217Z,12.62
2023-05-19T21:11:38.938Z,12.66
2023-05-19T21:14:07.770Z,12.52
2023-05-19T21:16:34.671Z,12.63
2023-05-19T21:19:02.002Z,12.45
2023-05-19T21:21:28.833Z,12.52
2023-05-19T21:23:55.516Z,12.55
2023-05-19T21:26:22.267Z,12.54
2023-05-19T21:28:49.169Z,12.46
2023-05-19T21:31:15.967Z,12.47
2023-05-19T21:33:43.155Z,12.47
2023-05-19T21:36:10.084Z,12.44
2023-05-19T21:38:36.794Z,12.47
2023-05-19T21:41:03.507Z,12.41
2023-05-19T21:43:30.280Z,12.36
2023-05-19T21:45:58.236Z,12.48
2023-05-19T21:48:25.096Z,12.39
2023-05-19T21:50:55.603Z,12.54
2023-05-19T21:53:22.439Z,12.48
2023-05-19T21:55:49.252Z,12.58
2023-05-19T21:58:16.357Z,12.52
2023-05-19T22:00:48.824Z,12.52
2023-05-19T22:03:15.859Z,12.54
2023-05-19T22:05:42.654Z,12.47
2023-05-19T22:08:09.455Z,12.61
2023-05-19T22:10:37.431Z,12.62
2023-05-19T22:13:04.257Z,12.67
2023-05-19T22:15:31.114Z,12.64
2023-05-19T22:17:57.879Z,12.60
2023-05-19T22:20:24.697Z,12.62
2023-05-19T22:22:51.629Z,12.61
2023-05-19T22:25:18.406Z,12.55
2023-05-19T22:27:45.096Z,12.61
2023-05-19T22:30:12.432Z,12.62
2023-05-19T22:32:39.225Z,12.67
2023-05-19T22:35:06.738Z,12.75
2023-05-19T22:37:33.519Z,12.83
2023-05-19T22:40:00.290Z,12.81
2023-05-19T22:42:27.233Z,12.85
2023-05-19T22:44:54.060Z,12.73
2023-05-19T22:47:20.823Z,12.81
2023-05-19T22:49:48.639Z,12.95
2023-05-19T22:52:15.396Z,13.08
2023-05-19T22:54:42.170Z,12.95
2023-05-19T22:57:09.102Z,12.80
2023-05-19T22:59:38.328Z,12.88
2023-05-19T23:02:06.052Z,12.86
2023-05-19T23:04:33.581Z,12.98
2023-05-19T23:07:01.007Z,13.00
2023-05-19T23:09:27.915Z,12.87
2023-05-19T23:11:54.816Z,12.79
2023-05-19T23:14:22.071Z,12.95
2023-05-19T23:16:48.914Z,13.07
2023-05-19T23:19:17.156Z,12.94
2023-05-19T23:21:44.838Z,12.93
2023-05-19T23:24:11.592Z,12.92
2023-05-19T23:26:38.338Z,12.86
2023-05-19T23:29:05.236Z,12.95
2023-05-19T23:31:32.190Z,12.96
2023-05-19T23:34:01.688Z,13.02
2023-05-19T23:36:28.441Z,13.22
2023-05-19T23:38:55.172Z,13.21
2023-05-19T23:41:21.890Z,13.21
2023-05-19T23:43:48.659Z,13.20
2023-05-19T23:46:15.566Z,13.11
2023-05-19T23:48:42.418Z,13.12
2023-05-19T23:51:12.095Z,13.12
2023-05-19T23:53:38.920Z,13.14
2023-05-19T23:56:06.190Z,13.24
2023-05-19T23:58:33.138Z,13.19
